sensor_id;sensor_type;location;lat;lon;timestamp;pressure;altitude;pressure_sealevel;temperature
42197;BMP280;27866;48.146;17.098;2022-11-04T00:04:11;99066.81;;;15.36
42197;BMP280;27866;48.146;17.098;2022-11-04T00:08:22;99083.16;;;15.21
42197;BMP280;27866;48.146;17.098;2022-11-04T00:12:33;99081.94;;;15.32
42197;BMP280;27866;48.146;17.098;2022-11-04T00:16:44;99082.47;;;15.36
42197;BMP280;27866;48.146;17.098;2022-11-04T00:21:14;99086.94;;;15.26
42197;BMP280;27866;48.146;17.098;2022-11-04T00:25:44;99063.53;;;15.00
42197;BMP280;27866;48.146;17.098;2022-11-04T00:30:14;99063.09;;;15.21
42197;BMP280;27866;48.146;17.098;2022-11-04T00:34:25;99078.38;;;15.16
42197;BMP280;27866;48.146;17.098;2022-11-04T00:38:36;99060.47;;;15.04
42197;BMP280;27866;48.146;17.098;2022-11-04T00:42:47;99066.13;;;14.74
42197;BMP280;27866;48.146;17.098;2022-11-04T00:46:58;99066.69;;;14.77
42197;BMP280;27866;48.146;17.098;2022-11-04T00:51:09;99049.88;;;14.63
42197;BMP280;27866;48.146;17.098;2022-11-04T00:55:20;99062.44;;;14.50
42197;BMP280;27866;48.146;17.098;2022-11-04T00:59:31;99051.50;;;14.47
42197;BMP280;27866;48.146;17.098;2022-11-04T01:03:44;99042.63;;;14.57
42197;BMP280;27866;48.146;17.098;2022-11-04T01:07:56;99037.97;;;14.60
42197;BMP280;27866;48.146;17.098;2022-11-04T01:12:07;99039.41;;;14.46
42197;BMP280;27866;48.146;17.098;2022-11-04T01:16:18;99035.28;;;14.52
42197;BMP280;27866;48.146;17.098;2022-11-04T01:20:32;99038.25;;;14.57
42197;BMP280;27866;48.146;17.098;2022-11-04T01:24:43;99023.59;;;14.56
42197;BMP280;27866;48.146;17.098;2022-11-04T01:28:56;99013.22;;;14.47
42197;BMP280;27866;48.146;17.098;2022-11-04T01:33:07;99009.44;;;14.59
42197;BMP280;27866;48.146;17.098;2022-11-04T01:37:18;98999.94;;;14.67
42197;BMP280;27866;48.146;17.098;2022-11-04T01:41:32;98998.69;;;14.71
42197;BMP280;27866;48.146;17.098;2022-11-04T01:46:04;98996.84;;;14.80
42197;BMP280;27866;48.146;17.098;2022-11-04T01:50:23;98991.81;;;14.96
42197;BMP280;27866;48.146;17.098;2022-11-04T01:54:36;98997.69;;;14.98
42197;BMP280;27866;48.146;17.098;2022-11-04T01:58:55;98991.63;;;14.80
42197;BMP280;27866;48.146;17.098;2022-11-04T02:03:25;98990.94;;;14.78
42197;BMP280;27866;48.146;17.098;2022-11-04T02:07:37;98985.25;;;14.92
42197;BMP280;27866;48.146;17.098;2022-11-04T02:11:48;98975.59;;;14.85
42197;BMP280;27866;48.146;17.098;2022-11-04T02:16:44;98975.97;;;14.80
42197;BMP280;27866;48.146;17.098;2022-11-04T02:30:09;98957.09;;;14.95
42197;BMP280;27866;48.146;17.098;2022-11-04T02:44:06;98930.03;;;15.13
42197;BMP280;27866;48.146;17.098;2022-11-04T02:53:14;98921.56;;;14.94
42197;BMP280;27866;48.146;17.098;2022-11-04T02:57:31;98908.41;;;14.96
42197;BMP280;27866;48.146;17.098;2022-11-04T03:01:45;98912.41;;;14.91
42197;BMP280;27866;48.146;17.098;2022-11-04T03:06:00;98907.41;;;14.97
42197;BMP280;27866;48.146;17.098;2022-11-04T03:10:36;98892.75;;;14.96
42197;BMP280;27866;48.146;17.098;2022-11-04T03:15:02;98911.66;;;14.98
42197;BMP280;27866;48.146;17.098;2022-11-04T03:19:37;98895.66;;;14.93
42197;BMP280;27866;48.146;17.098;2022-11-04T03:23:49;98908.06;;;14.99
42197;BMP280;27866;48.146;17.098;2022-11-04T03:37:04;98905.53;;;15.07
42197;BMP280;27866;48.146;17.098;2022-11-04T03:41:57;98914.28;;;14.98
42197;BMP280;27866;48.146;17.098;2022-11-04T03:46:09;98912.19;;;15.01
42197;BMP280;27866;48.146;17.098;2022-11-04T03:50:37;98912.03;;;15.03
42197;BMP280;27866;48.146;17.098;2022-11-04T03:54:49;98905.69;;;15.05
42197;BMP280;27866;48.146;17.098;2022-11-04T04:03:41;98890.84;;;15.06
42197;BMP280;27866;48.146;17.098;2022-11-04T04:12:36;98888.16;;;14.90
42197;BMP280;27866;48.146;17.098;2022-11-04T04:16:49;98876.72;;;14.91
42197;BMP280;27866;48.146;17.098;2022-11-04T04:21:04;98865.28;;;14.84
42197;BMP280;27866;48.146;17.098;2022-11-04T04:25:18;98863.91;;;14.80
42197;BMP280;27866;48.146;17.098;2022-11-04T04:29:50;98878.38;;;14.75
42197;BMP280;27866;48.146;17.098;2022-11-04T04:34:02;98865.84;;;14.78
42197;BMP280;27866;48.146;17.098;2022-11-04T04:38:23;98874.63;;;14.77
42197;BMP280;27866;48.146;17.098;2022-11-04T04:42:53;98871.06;;;14.78
42197;BMP280;27866;48.146;17.098;2022-11-04T04:47:23;98874.44;;;14.71
42197;BMP280;27866;48.146;17.098;2022-11-04T04:51:45;98862.19;;;14.72
42197;BMP280;27866;48.146;17.098;2022-11-04T04:55:57;98856.78;;;14.65
42197;BMP280;27866;48.146;17.098;2022-11-04T05:00:14;98863.63;;;14.66
42197;BMP280;27866;48.146;17.098;2022-11-04T05:04:25;98862.44;;;14.61
42197;BMP280;27866;48.146;17.098;2022-11-04T05:08:36;98873.22;;;14.66
42197;BMP280;27866;48.146;17.098;2022-11-04T05:12:47;98866.81;;;14.61
42197;BMP280;27866;48.146;17.098;2022-11-04T05:17:16;98864.38;;;14.59
42197;BMP280;27866;48.146;17.098;2022-11-04T05:21:28;98864.69;;;14.56
42197;BMP280;27866;48.146;17.098;2022-11-04T05:25:40;98871.16;;;14.52
42197;BMP280;27866;48.146;17.098;2022-11-04T05:29:51;98866.97;;;14.59
42197;BMP280;27866;48.146;17.098;2022-11-04T05:34:02;98866.03;;;14.60
42197;BMP280;27866;48.146;17.098;2022-11-04T05:38:15;98862.28;;;14.63
42197;BMP280;27866;48.146;17.098;2022-11-04T05:42:26;98868.47;;;14.62
42197;BMP280;27866;48.146;17.098;2022-11-04T05:46:37;98862.78;;;14.66
42197;BMP280;27866;48.146;17.098;2022-11-04T05:50:48;98870.94;;;14.63
42197;BMP280;27866;48.146;17.098;2022-11-04T05:55:00;98882.38;;;14.70
42197;BMP280;27866;48.146;17.098;2022-11-04T05:59:11;98895.03;;;14.65
42197;BMP280;27866;48.146;17.098;2022-11-04T06:03:22;98921.09;;;14.65
42197;BMP280;27866;48.146;17.098;2022-11-04T06:07:33;98921.41;;;14.62
42197;BMP280;27866;48.146;17.098;2022-11-04T06:11:44;98925.19;;;14.67
42197;BMP280;27866;48.146;17.098;2022-11-04T06:15:55;98922.69;;;14.75
42197;BMP280;27866;48.146;17.098;2022-11-04T06:20:08;98930.69;;;14.81
42197;BMP280;27866;48.146;17.098;2022-11-04T06:24:19;98938.94;;;14.86
42197;BMP280;27866;48.146;17.098;2022-11-04T06:28:31;98946.44;;;14.89
42197;BMP280;27866;48.146;17.098;2022-11-04T06:32:42;98936.00;;;14.89
42197;BMP280;27866;48.146;17.098;2022-11-04T06:36:53;98950.31;;;15.02
42197;BMP280;27866;48.146;17.098;2022-11-04T06:41:06;98958.94;;;15.03
42197;BMP280;27866;48.146;17.098;2022-11-04T06:45:18;98953.13;;;15.08
42197;BMP280;27866;48.146;17.098;2022-11-04T06:49:29;98970.63;;;14.99
42197;BMP280;27866;48.146;17.098;2022-11-04T06:53:40;98961.19;;;14.98
42197;BMP280;27866;48.146;17.098;2022-11-04T06:57:51;98976.28;;;14.94
42197;BMP280;27866;48.146;17.098;2022-11-04T07:02:03;98978.19;;;15.02
42197;BMP280;27866;48.146;17.098;2022-11-04T07:06:15;98970.78;;;15.14
42197;BMP280;27866;48.146;17.098;2022-11-04T07:11:09;98958.03;;;15.11
42197;BMP280;27866;48.146;17.098;2022-11-04T07:15:20;98959.00;;;15.10
42197;BMP280;27866;48.146;17.098;2022-11-04T07:19:32;98955.38;;;15.21
42197;BMP280;27866;48.146;17.098;2022-11-04T07:23:43;98955.38;;;15.21
42197;BMP280;27866;48.146;17.098;2022-11-04T07:27:54;98953.94;;;15.26
42197;BMP280;27866;48.146;17.098;2022-11-04T07:32:05;98947.44;;;15.30
42197;BMP280;27866;48.146;17.098;2022-11-04T07:36:17;98948.72;;;15.26
42197;BMP280;27866;48.146;17.098;2022-11-04T07:40:29;98931.47;;;15.33
42197;BMP280;27866;48.146;17.098;2022-11-04T07:44:41;98934.50;;;15.45
42197;BMP280;27866;48.146;17.098;2022-11-04T07:48:55;98928.81;;;15.50
42197;BMP280;27866;48.146;17.098;2022-11-04T07:53:06;98921.81;;;15.50
42197;BMP280;27866;48.146;17.098;2022-11-04T07:57:17;98927.09;;;15.58
42197;BMP280;27866;48.146;17.098;2022-11-04T08:01:28;98922.78;;;15.49
42197;BMP280;27866;48.146;17.098;2022-11-04T08:05:40;98916.66;;;15.58
42197;BMP280;27866;48.146;17.098;2022-11-04T08:09:51;98908.25;;;15.71
42197;BMP280;27866;48.146;17.098;2022-11-04T08:14:03;98904.59;;;15.89
42197;BMP280;27866;48.146;17.098;2022-11-04T08:18:14;98913.91;;;15.92
42197;BMP280;27866;48.146;17.098;2022-11-04T08:22:25;98912.13;;;15.92
42197;BMP280;27866;48.146;17.098;2022-11-04T08:26:37;98900.22;;;15.97
42197;BMP280;27866;48.146;17.098;2022-11-04T08:31:03;98896.97;;;15.95
42197;BMP280;27866;48.146;17.098;2022-11-04T08:35:15;98905.63;;;15.96
42197;BMP280;27866;48.146;17.098;2022-11-04T08:39:26;98899.38;;;15.89
42197;BMP280;27866;48.146;17.098;2022-11-04T08:43:38;98881.59;;;15.93
42197;BMP280;27866;48.146;17.098;2022-11-04T08:47:49;98870.03;;;15.95
42197;BMP280;27866;48.146;17.098;2022-11-04T08:52:00;98863.69;;;15.97
42197;BMP280;27866;48.146;17.098;2022-11-04T08:56:37;98855.50;;;16.00
42197;BMP280;27866;48.146;17.098;2022-11-04T09:00:49;98851.13;;;16.01
42197;BMP280;27866;48.146;17.098;2022-11-04T09:05:00;98851.59;;;15.96
42197;BMP280;27866;48.146;17.098;2022-11-04T09:09:15;98850.59;;;15.90
42197;BMP280;27866;48.146;17.098;2022-11-04T09:13:26;98844.72;;;15.88
42197;BMP280;27866;48.146;17.098;2022-11-04T09:17:37;98837.47;;;15.82
42197;BMP280;27866;48.146;17.098;2022-11-04T09:21:49;98846.56;;;15.70
42197;BMP280;27866;48.146;17.098;2022-11-04T09:26:10;98846.41;;;15.64
42197;BMP280;27866;48.146;17.098;2022-11-04T09:30:22;98834.97;;;15.65
42197;BMP280;27866;48.146;17.098;2022-11-04T09:34:33;98838.38;;;15.58
42197;BMP280;27866;48.146;17.098;2022-11-04T09:38:45;98836.13;;;15.70
42197;BMP280;27866;48.146;17.098;2022-11-04T09:47:41;98814.28;;;15.71
42197;BMP280;27866;48.146;17.098;2022-11-04T09:51:55;98821.63;;;15.76
42197;BMP280;27866;48.146;17.098;2022-11-04T09:56:21;98808.09;;;15.80
42197;BMP280;27866;48.146;17.098;2022-11-04T10:00:34;98800.78;;;15.83
42197;BMP280;27866;48.146;17.098;2022-11-04T10:23:48;98761.00;;;15.49
42197;BMP280;27866;48.146;17.098;2022-11-04T10:28:07;98748.34;;;15.62
42197;BMP280;27866;48.146;17.098;2022-11-04T10:32:37;98740.91;;;15.82
42197;BMP280;27866;48.146;17.098;2022-11-04T10:36:50;98731.91;;;15.77
42197;BMP280;27866;48.146;17.098;2022-11-04T10:41:11;98732.78;;;15.93
42197;BMP280;27866;48.146;17.098;2022-11-04T10:45:39;98717.78;;;15.94
42197;BMP280;27866;48.146;17.098;2022-11-04T10:54:25;98706.31;;;15.80
42197;BMP280;27866;48.146;17.098;2022-11-04T10:58:44;98695.56;;;15.75
42197;BMP280;27866;48.146;17.098;2022-11-04T11:02:56;98691.00;;;15.77
42197;BMP280;27866;48.146;17.098;2022-11-04T11:07:09;98675.00;;;15.80
42197;BMP280;27866;48.146;17.098;2022-11-04T11:11:42;98672.38;;;15.80
42197;BMP280;27866;48.146;17.098;2022-11-04T11:16:23;98654.63;;;15.91
42197;BMP280;27866;48.146;17.098;2022-11-04T11:20:35;98653.97;;;15.89
42197;BMP280;27866;48.146;17.098;2022-11-04T11:24:47;98634.41;;;15.85
42197;BMP280;27866;48.146;17.098;2022-11-04T11:28:59;98636.84;;;15.79
42197;BMP280;27866;48.146;17.098;2022-11-04T11:33:31;98630.31;;;15.75
42197;BMP280;27866;48.146;17.098;2022-11-04T11:37:45;98608.16;;;15.87
42197;BMP280;27866;48.146;17.098;2022-11-04T11:42:17;98597.84;;;15.85
42197;BMP280;27866;48.146;17.098;2022-11-04T11:46:35;98599.78;;;15.83
42197;BMP280;27866;48.146;17.098;2022-11-04T11:50:56;98586.59;;;15.69
42197;BMP280;27866;48.146;17.098;2022-11-04T11:55:11;98578.41;;;15.65
42197;BMP280;27866;48.146;17.098;2022-11-04T11:59:48;98578.25;;;15.74
42197;BMP280;27866;48.146;17.098;2022-11-04T12:04:02;98569.28;;;15.84
42197;BMP280;27866;48.146;17.098;2022-11-04T12:13:30;98560.63;;;15.76
42197;BMP280;27866;48.146;17.098;2022-11-04T12:23:35;98566.81;;;15.21
42197;BMP280;27866;48.146;17.098;2022-11-04T12:47:04;98531.44;;;15.10
42197;BMP280;27866;48.146;17.098;2022-11-04T12:51:45;98538.25;;;15.11
42197;BMP280;27866;48.146;17.098;2022-11-04T12:56:24;98527.19;;;15.09
42197;BMP280;27866;48.146;17.098;2022-11-04T13:00:40;98521.66;;;15.12
42197;BMP280;27866;48.146;17.098;2022-11-04T13:05:22;98514.00;;;15.11
42197;BMP280;27866;48.146;17.098;2022-11-04T13:09:54;98528.34;;;15.07
42197;BMP280;27866;48.146;17.098;2022-11-04T13:14:17;98512.31;;;14.94
42197;BMP280;27866;48.146;17.098;2022-11-04T13:18:34;98512.19;;;14.88
42197;BMP280;27866;48.146;17.098;2022-11-04T13:22:50;98505.91;;;14.81
42197;BMP280;27866;48.146;17.098;2022-11-04T13:27:12;98492.22;;;14.79
42197;BMP280;27866;48.146;17.098;2022-11-04T13:41:49;98502.78;;;14.63
42197;BMP280;27866;48.146;17.098;2022-11-04T13:46:32;98524.09;;;14.66
42197;BMP280;27866;48.146;17.098;2022-11-04T13:50:44;98514.88;;;14.71
42197;BMP280;27866;48.146;17.098;2022-11-04T13:55:16;98535.88;;;14.77
42197;BMP280;27866;48.146;17.098;2022-11-04T13:59:31;98545.69;;;14.83
42197;BMP280;27866;48.146;17.098;2022-11-04T14:03:57;98557.38;;;14.79
42197;BMP280;27866;48.146;17.098;2022-11-04T14:08:15;98546.78;;;14.73
42197;BMP280;27866;48.146;17.098;2022-11-04T14:12:29;98545.16;;;14.80
42197;BMP280;27866;48.146;17.098;2022-11-04T14:16:44;98547.13;;;14.78
42197;BMP280;27866;48.146;17.098;2022-11-04T14:21:03;98552.38;;;14.86
42197;BMP280;27866;48.146;17.098;2022-11-04T14:25:29;98553.22;;;14.86
42197;BMP280;27866;48.146;17.098;2022-11-04T14:29:49;98555.81;;;14.86
42197;BMP280;27866;48.146;17.098;2022-11-04T14:34:01;98555.97;;;14.85
42197;BMP280;27866;48.146;17.098;2022-11-04T14:38:32;98546.72;;;14.90
42197;BMP280;27866;48.146;17.098;2022-11-04T14:42:54;98559.75;;;14.90
42197;BMP280;27866;48.146;17.098;2022-11-04T14:47:25;98561.69;;;14.88
42197;BMP280;27866;48.146;17.098;2022-11-04T14:51:40;98548.16;;;14.85
42197;BMP280;27866;48.146;17.098;2022-11-04T14:56:16;98559.38;;;14.85
42197;BMP280;27866;48.146;17.098;2022-11-04T15:05:01;98569.44;;;14.80
42197;BMP280;27866;48.146;17.098;2022-11-04T15:09:37;98578.19;;;14.72
42197;BMP280;27866;48.146;17.098;2022-11-04T15:13:56;98596.34;;;14.81
42197;BMP280;27866;48.146;17.098;2022-11-04T15:18:20;98601.25;;;14.84
42197;BMP280;27866;48.146;17.098;2022-11-04T15:22:32;98629.38;;;14.80
42197;BMP280;27866;48.146;17.098;2022-11-04T15:26:49;98630.97;;;14.74
42197;BMP280;27866;48.146;17.098;2022-11-04T15:31:13;98638.28;;;14.70
42197;BMP280;27866;48.146;17.098;2022-11-04T15:35:30;98653.41;;;14.67
42197;BMP280;27866;48.146;17.098;2022-11-04T15:39:48;98684.56;;;14.51
42197;BMP280;27866;48.146;17.098;2022-11-04T15:44:01;98686.47;;;14.00
42197;BMP280;27866;48.146;17.098;2022-11-04T15:48:32;98687.28;;;13.50
42197;BMP280;27866;48.146;17.098;2022-11-04T15:52:53;98694.81;;;13.27
42197;BMP280;27866;48.146;17.098;2022-11-04T15:57:33;98714.41;;;13.21
42197;BMP280;27866;48.146;17.098;2022-11-04T16:01:50;98727.56;;;13.20
42197;BMP280;27866;48.146;17.098;2022-11-04T16:06:06;98720.81;;;13.01
42197;BMP280;27866;48.146;17.098;2022-11-04T16:10:31;98740.66;;;12.92
42197;BMP280;27866;48.146;17.098;2022-11-04T16:14:48;98730.41;;;12.91
42197;BMP280;27866;48.146;17.098;2022-11-04T16:19:00;98718.72;;;12.78
42197;BMP280;27866;48.146;17.098;2022-11-04T16:23:23;98712.69;;;12.77
42197;BMP280;27866;48.146;17.098;2022-11-04T16:27:35;98714.13;;;12.63
42197;BMP280;27866;48.146;17.098;2022-11-04T16:32:22;98718.91;;;12.58
42197;BMP280;27866;48.146;17.098;2022-11-04T16:36:34;98710.47;;;12.56
42197;BMP280;27866;48.146;17.098;2022-11-04T16:40:47;98715.50;;;12.58
42197;BMP280;27866;48.146;17.098;2022-11-04T16:45:02;98718.44;;;12.72
42197;BMP280;27866;48.146;17.098;2022-11-04T16:49:15;98718.28;;;12.82
42197;BMP280;27866;48.146;17.098;2022-11-04T16:53:26;98701.22;;;12.80
42197;BMP280;27866;48.146;17.098;2022-11-04T16:57:38;98719.28;;;12.72
42197;BMP280;27866;48.146;17.098;2022-11-04T17:01:49;98759.19;;;12.80
42197;BMP280;27866;48.146;17.098;2022-11-04T17:06:00;98788.47;;;12.73
42197;BMP280;27866;48.146;17.098;2022-11-04T17:10:22;98775.91;;;12.50
42197;BMP280;27866;48.146;17.098;2022-11-04T17:14:34;98771.97;;;12.37
42197;BMP280;27866;48.146;17.098;2022-11-04T17:18:45;98773.75;;;12.28
42197;BMP280;27866;48.146;17.098;2022-11-04T17:22:58;98778.38;;;12.24
42197;BMP280;27866;48.146;17.098;2022-11-04T17:27:09;98780.03;;;12.25
42197;BMP280;27866;48.146;17.098;2022-11-04T17:31:20;98793.94;;;12.24
42197;BMP280;27866;48.146;17.098;2022-11-04T17:35:39;98786.31;;;12.14
42197;BMP280;27866;48.146;17.098;2022-11-04T17:39:51;98799.69;;;12.09
42197;BMP280;27866;48.146;17.098;2022-11-04T17:44:02;98817.84;;;12.00
42197;BMP280;27866;48.146;17.098;2022-11-04T17:48:14;98814.41;;;12.00
42197;BMP280;27866;48.146;17.098;2022-11-04T17:52:26;98820.97;;;12.03
42197;BMP280;27866;48.146;17.098;2022-11-04T17:56:37;98794.91;;;12.05
42197;BMP280;27866;48.146;17.098;2022-11-04T18:00:50;98806.53;;;12.01
42197;BMP280;27866;48.146;17.098;2022-11-04T18:05:01;98824.38;;;12.04
42197;BMP280;27866;48.146;17.098;2022-11-04T18:09:14;98817.84;;;12.18
42197;BMP280;27866;48.146;17.098;2022-11-04T18:13:25;98822.91;;;12.20
42197;BMP280;27866;48.146;17.098;2022-11-04T18:17:41;98834.66;;;12.15
42197;BMP280;27866;48.146;17.098;2022-11-04T18:21:53;98856.91;;;12.08
42197;BMP280;27866;48.146;17.098;2022-11-04T18:26:08;98857.97;;;12.05
42197;BMP280;27866;48.146;17.098;2022-11-04T18:30:19;98851.84;;;11.97
42197;BMP280;27866;48.146;17.098;2022-11-04T18:34:32;98858.41;;;12.01
42197;BMP280;27866;48.146;17.098;2022-11-04T18:38:43;98868.25;;;12.07
42197;BMP280;27866;48.146;17.098;2022-11-04T18:42:54;98861.94;;;12.09
42197;BMP280;27866;48.146;17.098;2022-11-04T18:47:06;98876.97;;;12.15
42197;BMP280;27866;48.146;17.098;2022-11-04T18:51:20;98886.81;;;12.12
42197;BMP280;27866;48.146;17.098;2022-11-04T18:55:32;98888.19;;;12.16
42197;BMP280;27866;48.146;17.098;2022-11-04T18:59:44;98887.38;;;12.24
42197;BMP280;27866;48.146;17.098;2022-11-04T19:03:55;98886.72;;;12.41
42197;BMP280;27866;48.146;17.098;2022-11-04T19:08:07;98895.59;;;12.38
42197;BMP280;27866;48.146;17.098;2022-11-04T19:12:18;98889.16;;;12.42
42197;BMP280;27866;48.146;17.098;2022-11-04T19:16:47;98895.59;;;12.47
42197;BMP280;27866;48.146;17.098;2022-11-04T19:21:06;98895.59;;;12.47
42197;BMP280;27866;48.146;17.098;2022-11-04T19:25:17;98901.94;;;12.54
42197;BMP280;27866;48.146;17.098;2022-11-04T19:29:29;98910.09;;;12.59
42197;BMP280;27866;48.146;17.098;2022-11-04T19:33:42;98911.72;;;12.60
42197;BMP280;27866;48.146;17.098;2022-11-04T19:37:54;98914.75;;;12.65
42197;BMP280;27866;48.146;17.098;2022-11-04T19:42:05;98909.41;;;12.66
42197;BMP280;27866;48.146;17.098;2022-11-04T19:46:35;98906.69;;;12.68
42197;BMP280;27866;48.146;17.098;2022-11-04T19:50:48;98919.41;;;12.71
42197;BMP280;27866;48.146;17.098;2022-11-04T19:54:59;98916.13;;;12.78
42197;BMP280;27866;48.146;17.098;2022-11-04T19:59:10;98928.28;;;12.77
42197;BMP280;27866;48.146;17.098;2022-11-04T20:03:22;98936.63;;;12.81
42197;BMP280;27866;48.146;17.098;2022-11-04T20:07:33;98918.88;;;12.76
42197;BMP280;27866;48.146;17.098;2022-11-04T20:11:44;98941.81;;;12.72
42197;BMP280;27866;48.146;17.098;2022-11-04T20:16:23;98934.44;;;12.58
42197;BMP280;27866;48.146;17.098;2022-11-04T20:20:35;98937.66;;;12.42
42197;BMP280;27866;48.146;17.098;2022-11-04T20:24:46;98945.97;;;12.27
42197;BMP280;27866;48.146;17.098;2022-11-04T20:28:58;98948.84;;;12.15
42197;BMP280;27866;48.146;17.098;2022-11-04T20:33:09;98954.28;;;12.12
42197;BMP280;27866;48.146;17.098;2022-11-04T20:37:21;98955.63;;;12.06
42197;BMP280;27866;48.146;17.098;2022-11-04T20:41:32;98966.25;;;12.03
42197;BMP280;27866;48.146;17.098;2022-11-04T20:45:43;98957.78;;;12.02
42197;BMP280;27866;48.146;17.098;2022-11-04T20:49:54;98960.78;;;11.97
42197;BMP280;27866;48.146;17.098;2022-11-04T20:54:06;98967.59;;;11.98
42197;BMP280;27866;48.146;17.098;2022-11-04T20:58:17;98970.06;;;12.00
42197;BMP280;27866;48.146;17.098;2022-11-04T21:02:28;98970.66;;;12.03
42197;BMP280;27866;48.146;17.098;2022-11-04T21:06:40;98964.66;;;12.12
42197;BMP280;27866;48.146;17.098;2022-11-04T21:10:54;98963.84;;;12.20
42197;BMP280;27866;48.146;17.098;2022-11-04T21:15:06;98967.44;;;12.29
42197;BMP280;27866;48.146;17.098;2022-11-04T21:19:38;98981.53;;;12.35
42197;BMP280;27866;48.146;17.098;2022-11-04T21:23:49;98980.41;;;12.38
42197;BMP280;27866;48.146;17.098;2022-11-04T21:28:05;98984.22;;;12.34
42197;BMP280;27866;48.146;17.098;2022-11-04T21:32:16;98995.16;;;12.28
42197;BMP280;27866;48.146;17.098;2022-11-04T21:36:27;98990.38;;;12.24
42197;BMP280;27866;48.146;17.098;2022-11-04T21:40:38;98991.97;;;12.16
42197;BMP280;27866;48.146;17.098;2022-11-04T21:44:50;99000.97;;;12.12
42197;BMP280;27866;48.146;17.098;2022-11-04T21:49:01;99002.88;;;12.10
42197;BMP280;27866;48.146;17.098;2022-11-04T21:53:13;99004.94;;;12.06
42197;BMP280;27866;48.146;17.098;2022-11-04T21:57:24;99002.75;;;12.11
42197;BMP280;27866;48.146;17.098;2022-11-04T22:01:35;98997.56;;;12.11
42197;BMP280;27866;48.146;17.098;2022-11-04T22:05:59;98985.28;;;12.13
42197;BMP280;27866;48.146;17.098;2022-11-04T22:10:10;98982.28;;;12.08
42197;BMP280;27866;48.146;17.098;2022-11-04T22:14:21;98994.00;;;12.03
42197;BMP280;27866;48.146;17.098;2022-11-04T22:18:32;98990.25;;;11.96
42197;BMP280;27866;48.146;17.098;2022-11-04T22:22:44;98992.06;;;11.96
42197;BMP280;27866;48.146;17.098;2022-11-04T22:26:55;98997.91;;;11.98
42197;BMP280;27866;48.146;17.098;2022-11-04T22:31:19;99000.13;;;12.02
42197;BMP280;27866;48.146;17.098;2022-11-04T22:35:30;99013.78;;;12.04
42197;BMP280;27866;48.146;17.098;2022-11-04T22:39:41;99013.53;;;12.07
42197;BMP280;27866;48.146;17.098;2022-11-04T22:43:54;99023.91;;;12.07
42197;BMP280;27866;48.146;17.098;2022-11-04T22:48:05;99025.31;;;12.11
42197;BMP280;27866;48.146;17.098;2022-11-04T22:52:16;99018.06;;;12.14
42197;BMP280;27866;48.146;17.098;2022-11-04T22:56:27;99019.84;;;12.14
42197;BMP280;27866;48.146;17.098;2022-11-04T23:00:39;99013.03;;;12.13
42197;BMP280;27866;48.146;17.098;2022-11-04T23:04:50;99013.72;;;12.15
42197;BMP280;27866;48.146;17.098;2022-11-04T23:09:01;99004.53;;;12.11
42197;BMP280;27866;48.146;17.098;2022-11-04T23:13:12;99011.22;;;12.13
42197;BMP280;27866;48.146;17.098;2022-11-04T23:17:42;99009.72;;;12.11
42197;BMP280;27866;48.146;17.098;2022-11-04T23:22:12;99009.47;;;12.14
42197;BMP280;27866;48.146;17.098;2022-11-04T23:26:43;99016.81;;;12.09
42197;BMP280;27866;48.146;17.098;2022-11-04T23:30:57;99030.75;;;12.08
42197;BMP280;27866;48.146;17.098;2022-11-04T23:35:09;99048.75;;;12.09
42197;BMP280;27866;48.146;17.098;2022-11-04T23:39:49;99059.56;;;12.05
42197;BMP280;27866;48.146;17.098;2022-11-04T23:44:00;99077.19;;;12.11
42197;BMP280;27866;48.146;17.098;2022-11-04T23:48:11;99077.06;;;12.12
42197;BMP280;27866;48.146;17.098;2022-11-04T23:52:41;99095.22;;;12.12
42197;BMP280;27866;48.146;17.098;2022-11-04T23:57:16;99100.97;;;12.16
